ENVA/TRD METAR and TAF weather

Enter ICAO airport designator
Station Type Date Time Source
ENVA METAR 2024/05/28 23:20 UTC NOAA

ENVA 282320Z AUTO 13005KT 9999 FEW130/// BKN160/// 14/12 Q1011 RMK WIND 670FT 15005KT


Station Type Date Time Source
ENVA Decoded METAR 2024/05/28 23:20 UTC NOAA

Trondheim / Vaernes, Norway (ENVA) 63-28N 010-56E 17M
May 28, 2024 - 07:20 PM EDT / 2024.05.28 2320 UTC
Wind: from the SE (130 degrees) at 6 MPH (5 KT):0
Visibility: greater than 7 mile(s):0
Sky conditions: mostly cloudy
Temperature: 57 F (14 C)
Dew Point: 53 F (12 C)
Relative Humidity: 87%
Pressure (altimeter): 29.85 in. Hg (1011 hPa)
ob: ENVA 282320Z AUTO 13005KT 9999 FEW130/// BKN160/// 14/12 Q1011 RMK WIND 670FT 15005KT
cycle: 23

Station Type Date Time Source
ENVA TAF 2024/05/28 20:21 UTC NOAA